Time;durP1;ratioP1;P1;durP2;ratioP2;P2;SDS_P1;SDS_P2;PMS_P1;PMS_P2;Temp;Humidity;BMP_temperature;BMP_pressure;BME280_temperature;BME280_humidity;BME280_pressure;Samples;Min_cycle;Max_cycle;Signal;HPM_P1;HPM_P2
2021/11/04 00:00:03;;;;;;;30.87;13.53;;;;;;;;;;5118987;27;20487;-73
2021/11/04 00:02:30;;;;;;;22.93;14.93;;;;;;;;;;5119058;27;20455;-72
2021/11/04 00:04:59;;;;;;;23.97;13.80;;;;;;;;;;5118564;27;20518;-71
2021/11/04 00:07:27;;;;;;;22.70;13.70;;;;;;;;;;5118897;27;20859;-73
2021/11/04 00:09:54;;;;;;;25.30;13.97;;;;;;;;;;5118870;27;20485;-73
2021/11/04 00:12:22;;;;;;;19.07;12.80;;;;;;;;;;5117943;27;20451;-72
2021/11/04 00:14:49;;;;;;;20.37;12.57;;;;;;;;;;5119427;27;20482;-73
2021/11/04 00:17:17;;;;;;;24.23;13.90;;;;;;;;;;5117865;27;20450;-72
2021/11/04 00:19:47;;;;;;;23.83;13.30;;;;;;;;;;5118031;27;20498;-74
2021/11/04 00:22:15;;;;;;;19.87;14.00;;;;;;;;;;5118027;27;20851;-72
2021/11/04 00:24:44;;;;;;;23.63;14.30;;;;;;;;;;5118822;27;20461;-72
2021/11/04 00:27:14;;;;;;;20.20;13.40;;;;;;;;;;5118069;27;20454;-73
2021/11/04 00:29:43;;;;;;;22.80;12.70;;;;;;;;;;5118614;27;21035;-73
2021/11/04 00:32:12;;;;;;;16.77;11.00;;;;;;;;;;5134603;27;20458;-72
2021/11/04 00:34:40;;;;;;;22.00;13.50;;;;;;;;;;5124725;27;20509;-73
2021/11/04 00:37:16;;;;;;;20.40;14.07;;;;;;;;;;5135168;28;20446;-72
2021/11/04 00:39:45;;;;;;;21.40;13.50;;;;;;;;;;5132571;28;20466;-73
2021/11/04 00:42:21;;;;;;;21.47;13.10;;;;;;;;;;5118527;28;20447;-72
2021/11/04 00:44:51;;;;;;;21.60;13.67;;;;;;;;;;5118464;28;20454;-71
2021/11/04 00:47:19;;;;;;;17.70;11.77;;;;;;;;;;5117747;28;20478;-71
2021/11/04 00:49:46;;;;;;;20.80;12.67;;;;;;;;;;5118203;28;20748;-73
2021/11/04 00:52:13;;;;;;;24.53;15.60;;;;;;;;;;5125287;28;20881;-73
2021/11/04 00:54:41;;;;;;;20.07;13.23;;;;;;;;;;5139134;27;20696;-72
2021/11/04 00:57:08;;;;;;;21.73;13.77;;;;;;;;;;5128901;27;20731;-73
2021/11/04 00:59:36;;;;;;;20.20;13.83;;;;;;;;;;5123373;28;20552;-72
2021/11/04 01:02:06;;;;;;;21.03;13.33;;;;;;;;;;5117806;28;20659;-72
2021/11/04 01:04:36;;;;;;;18.37;12.53;;;;;;;;;;5117677;28;20515;-73
2021/11/04 01:07:04;;;;;;;25.57;14.10;;;;;;;;;;5117785;28;20738;-72
2021/11/04 01:09:31;;;;;;;21.73;13.10;;;;;;;;;;5125804;27;20458;-72
2021/11/04 01:11:58;;;;;;;21.20;13.30;;;;;;;;;;5139160;27;20476;-73
2021/11/04 01:14:25;;;;;;;21.63;13.87;;;;;;;;;;5136017;27;20534;-73
2021/11/04 01:16:52;;;;;;;24.33;13.07;;;;;;;;;;5138153;27;20503;-73
2021/11/04 01:19:20;;;;;;;17.10;11.87;;;;;;;;;;5138220;27;20932;-72
2021/11/04 01:21:47;;;;;;;21.67;13.37;;;;;;;;;;5136829;27;20485;-72
2021/11/04 01:24:17;;;;;;;19.50;12.63;;;;;;;;;;5138154;27;20536;-72
2021/11/04 01:26:44;;;;;;;17.93;11.53;;;;;;;;;;5137863;27;20592;-72
2021/11/04 01:29:11;;;;;;;23.07;13.40;;;;;;;;;;5139637;27;20521;-72
2021/11/04 01:31:39;;;;;;;19.47;12.30;;;;;;;;;;5138297;27;20951;-74
2021/11/04 01:34:08;;;;;;;21.47;12.80;;;;;;;;;;5138317;27;20457;-73
2021/11/04 01:36:36;;;;;;;23.73;13.50;;;;;;;;;;5138203;27;20457;-73
2021/11/04 01:39:03;;;;;;;18.97;13.10;;;;;;;;;;5138210;27;20462;-74
2021/11/04 01:41:31;;;;;;;19.37;11.97;;;;;;;;;;5138662;27;20741;-73
2021/11/04 01:43:58;;;;;;;20.43;12.27;;;;;;;;;;5117663;28;20528;-73
2021/11/04 01:46:25;;;;;;;19.37;13.13;;;;;;;;;;5117362;28;20459;-74
2021/11/04 01:48:53;;;;;;;36.07;27.10;;;;;;;;;;5120996;28;20490;-73
2021/11/04 01:51:20;;;;;;;24.40;14.40;;;;;;;;;;5118106;28;20545;-74
2021/11/04 01:53:51;;;;;;;26.47;13.20;;;;;;;;;;5121648;28;20600;-73
2021/11/04 01:56:20;;;;;;;24.33;14.10;;;;;;;;;;5116552;28;20443;-73
2021/11/04 01:58:47;;;;;;;23.23;12.93;;;;;;;;;;5124731;27;20458;-73
2021/11/04 02:01:16;;;;;;;26.77;14.97;;;;;;;;;;5124989;28;20783;-74
2021/11/04 02:03:45;;;;;;;17.73;13.00;;;;;;;;;;5116999;28;20451;-73
2021/11/04 02:06:23;;;;;;;20.30;11.33;;;;;;;;;;5117381;28;20447;-73
2021/11/04 02:08:54;;;;;;;18.10;12.30;;;;;;;;;;5117407;28;20731;-73
2021/11/04 02:11:22;;;;;;;24.67;13.80;;;;;;;;;;5116552;28;20463;-73
2021/11/04 02:13:52;;;;;;;22.70;11.40;;;;;;;;;;5117049;28;20458;-73
2021/11/04 02:16:19;;;;;;;19.87;13.43;;;;;;;;;;5117863;28;20543;-73
2021/11/04 02:18:46;;;;;;;24.20;15.30;;;;;;;;;;5118023;28;20458;-73
2021/11/04 02:21:16;;;;;;;23.57;14.93;;;;;;;;;;5125609;27;20481;-73
2021/11/04 02:23:48;;;;;;;25.33;14.30;;;;;;;;;;5137024;27;20742;-73
2021/11/04 02:26:16;;;;;;;20.50;14.00;;;;;;;;;;5137496;27;20873;-73
2021/11/04 02:28:44;;;;;;;26.10;15.10;;;;;;;;;;5140368;27;20496;-73
2021/11/04 02:31:11;;;;;;;25.03;13.63;;;;;;;;;;5140440;27;20438;-73
2021/11/04 02:33:40;;;;;;;25.90;13.57;;;;;;;;;;5140637;27;20926;-73
2021/11/04 02:36:08;;;;;;;28.83;15.30;;;;;;;;;;5135142;27;20447;-73
2021/11/04 02:38:36;;;;;;;23.77;14.30;;;;;;;;;;5119304;28;20470;-73
2021/11/04 02:41:04;;;;;;;22.47;14.47;;;;;;;;;;5122846;28;20492;-73
2021/11/04 02:43:35;;;;;;;21.87;12.73;;;;;;;;;;5123000;27;20880;-73
2021/11/04 02:46:03;;;;;;;20.47;13.70;;;;;;;;;;5130677;27;20498;-73
2021/11/04 02:48:32;;;;;;;22.83;14.17;;;;;;;;;;5139980;27;20469;-74
2021/11/04 02:50:59;;;;;;;19.20;13.03;;;;;;;;;;5131238;28;20447;-74
2021/11/04 02:53:28;;;;;;;37.67;15.73;;;;;;;;;;5118984;28;21012;-74
2021/11/04 02:55:55;;;;;;;18.03;12.33;;;;;;;;;;5119255;28;20457;-74
2021/11/04 02:58:24;;;;;;;23.37;13.30;;;;;;;;;;5120237;28;20486;-73
2021/11/04 03:00:53;;;;;;;22.03;13.77;;;;;;;;;;5122345;28;20483;-73
2021/11/04 03:03:21;;;;;;;21.27;14.00;;;;;;;;;;5140100;27;20525;-73
2021/11/04 03:05:48;;;;;;;20.20;12.67;;;;;;;;;;5137768;27;20439;-73
2021/11/04 03:08:16;;;;;;;26.90;15.27;;;;;;;;;;5127744;27;20794;-74
2021/11/04 03:10:44;;;;;;;22.83;14.00;;;;;;;;;;5139530;27;20449;-74
2021/11/04 03:13:12;;;;;;;20.07;13.33;;;;;;;;;;5124243;28;20477;-73
2021/11/04 03:15:42;;;;;;;20.77;14.23;;;;;;;;;;5120197;28;20443;-74
2021/11/04 03:18:11;;;;;;;18.90;13.90;;;;;;;;;;5119308;28;20541;-74
2021/11/04 03:20:40;;;;;;;19.67;13.10;;;;;;;;;;5119426;28;20506;-74
2021/11/04 03:23:08;;;;;;;16.53;11.80;;;;;;;;;;5118953;28;20465;-74
2021/11/04 03:25:36;;;;;;;20.80;12.70;;;;;;;;;;5119626;28;20534;-74
2021/11/04 03:28:05;;;;;;;19.97;13.63;;;;;;;;;;5119527;28;20574;-74
2021/11/04 03:30:36;;;;;;;25.10;12.07;;;;;;;;;;5118739;28;20461;-74
2021/11/04 03:33:05;;;;;;;19.17;12.00;;;;;;;;;;5119365;28;20458;-74
2021/11/04 03:35:35;;;;;;;20.63;11.90;;;;;;;;;;5118658;28;20451;-75
2021/11/04 03:38:06;;;;;;;23.70;13.30;;;;;;;;;;5118801;28;21124;-74
2021/11/04 03:40:34;;;;;;;24.33;13.27;;;;;;;;;;5119009;28;20489;-74
2021/11/04 03:43:02;;;;;;;22.00;13.07;;;;;;;;;;5118752;28;20469;-74
2021/11/04 03:45:30;;;;;;;16.27;11.27;;;;;;;;;;5120658;28;20623;-74
2021/11/04 03:47:59;;;;;;;19.77;11.40;;;;;;;;;;5139044;27;20502;-74
2021/11/04 03:50:30;;;;;;;18.00;11.60;;;;;;;;;;5132976;28;20880;-74
2021/11/04 03:52:58;;;;;;;19.90;12.10;;;;;;;;;;5124877;27;20451;-74
2021/11/04 03:55:28;;;;;;;19.57;12.60;;;;;;;;;;5119237;28;20549;-74
2021/11/04 03:57:56;;;;;;;27.77;16.10;;;;;;;;;;5119246;28;20790;-74
2021/11/04 04:00:23;;;;;;;20.17;11.80;;;;;;;;;;5119023;28;20495;-74
2021/11/04 04:02:52;;;;;;;18.37;13.37;;;;;;;;;;5130504;27;20734;-74
2021/11/04 04:05:28;;;;;;;19.53;12.13;;;;;;;;;;5128140;27;20900;-74
2021/11/04 04:07:55;;;;;;;29.20;14.53;;;;;;;;;;5139301;27;20452;-74
2021/11/04 04:10:23;;;;;;;18.80;12.40;;;;;;;;;;5134369;27;20895;-73
2021/11/04 04:12:52;;;;;;;19.23;12.30;;;;;;;;;;5139442;27;20861;-73
2021/11/04 04:15:19;;;;;;;20.30;12.93;;;;;;;;;;5130348;27;20480;-73
2021/11/04 04:17:46;;;;;;;27.83;15.70;;;;;;;;;;5118501;28;20474;-74
2021/11/04 04:20:13;;;;;;;19.70;13.07;;;;;;;;;;5120750;27;21598;-74
2021/11/04 04:22:41;;;;;;;21.20;12.53;;;;;;;;;;5134618;27;20457;-73
2021/11/04 04:25:08;;;;;;;16.67;9.67;;;;;;;;;;5119885;28;20442;-73
2021/11/04 04:27:36;;;;;;;21.63;10.87;;;;;;;;;;5124568;28;20870;-74
2021/11/04 04:30:04;;;;;;;19.73;13.70;;;;;;;;;;5117977;28;20874;-73
2021/11/04 04:32:34;;;;;;;20.70;11.57;;;;;;;;;;5128299;27;20466;-73
2021/11/04 04:35:03;;;;;;;22.10;13.07;;;;;;;;;;5138140;27;20532;-73
2021/11/04 04:37:31;;;;;;;20.37;14.17;;;;;;;;;;5138414;27;20805;-74
2021/11/04 04:39:58;;;;;;;20.03;11.70;;;;;;;;;;5137732;27;20473;-73
2021/11/04 04:42:25;;;;;;;24.37;12.23;;;;;;;;;;5137776;27;20442;-74
2021/11/04 04:44:56;;;;;;;20.07;12.50;;;;;;;;;;5138844;27;20939;-74
2021/11/04 04:47:23;;;;;;;22.40;13.80;;;;;;;;;;5137984;27;20858;-75
2021/11/04 04:49:50;;;;;;;21.47;13.20;;;;;;;;;;5137949;27;20458;-75
2021/11/04 04:52:18;;;;;;;18.37;12.47;;;;;;;;;;5135442;27;20454;-74
2021/11/04 04:54:45;;;;;;;20.60;13.13;;;;;;;;;;5128462;27;21079;-75
2021/11/04 04:57:12;;;;;;;19.77;11.87;;;;;;;;;;5131979;27;20504;-74
2021/11/04 04:59:39;;;;;;;18.30;12.10;;;;;;;;;;5119383;28;20517;-75
2021/11/04 05:02:08;;;;;;;19.40;11.83;;;;;;;;;;5129210;28;20581;-75
2021/11/04 05:04:35;;;;;;;23.80;14.87;;;;;;;;;;5123932;28;20469;-75
2021/11/04 05:07:02;;;;;;;22.80;12.40;;;;;;;;;;5121016;28;20450;-74
2021/11/04 05:09:30;;;;;;;20.70;11.17;;;;;;;;;;5117767;28;20550;-74
2021/11/04 05:12:00;;;;;;;24.23;13.60;;;;;;;;;;5131046;27;20478;-74
2021/11/04 05:14:30;;;;;;;22.77;13.30;;;;;;;;;;5137439;27;20449;-74
2021/11/04 05:16:57;;;;;;;19.67;12.17;;;;;;;;;;5128128;27;20450;-74
2021/11/04 05:19:25;;;;;;;21.03;13.33;;;;;;;;;;5136911;27;20461;-74
2021/11/04 05:21:53;;;;;;;24.27;12.47;;;;;;;;;;5139064;27;20819;-73
2021/11/04 05:24:20;;;;;;;19.37;13.27;;;;;;;;;;5137545;27;20873;-73
2021/11/04 05:26:48;;;;;;;17.37;11.10;;;;;;;;;;5137853;27;20449;-73
2021/11/04 05:29:15;;;;;;;23.23;13.60;;;;;;;;;;5137537;27;20469;-74
2021/11/04 05:31:44;;;;;;;21.73;12.03;;;;;;;;;;5138022;27;20494;-75
2021/11/04 05:34:12;;;;;;;24.70;13.60;;;;;;;;;;5138498;27;20457;-74
2021/11/04 05:36:40;;;;;;;24.00;13.40;;;;;;;;;;5137241;27;20446;-74
2021/11/04 05:39:10;;;;;;;30.80;15.33;;;;;;;;;;5136883;27;20452;-74
2021/11/04 05:41:37;;;;;;;20.27;13.23;;;;;;;;;;5137079;27;20509;-74
2021/11/04 05:44:04;;;;;;;19.10;11.90;;;;;;;;;;5137246;27;20482;-74
2021/11/04 05:46:31;;;;;;;23.60;12.63;;;;;;;;;;5137409;27;20461;-74
2021/11/04 05:48:59;;;;;;;19.90;12.10;;;;;;;;;;5135783;27;20442;-74
2021/11/04 05:51:26;;;;;;;22.00;12.90;;;;;;;;;;5137746;27;20463;-74
2021/11/04 05:53:53;;;;;;;20.67;13.13;;;;;;;;;;5137894;27;20541;-74
2021/11/04 05:56:21;;;;;;;19.93;12.20;;;;;;;;;;5136872;27;20483;-73
2021/11/04 05:58:48;;;;;;;24.17;13.50;;;;;;;;;;5135833;27;20442;-74
2021/11/04 06:01:17;;;;;;;19.10;12.63;;;;;;;;;;5134094;27;20481;-74
2021/11/04 06:03:44;;;;;;;22.50;13.53;;;;;;;;;;5136152;27;20457;-74
2021/11/04 06:06:11;;;;;;;21.13;12.10;;;;;;;;;;5136821;27;20454;-74
2021/11/04 06:08:38;;;;;;;17.87;11.00;;;;;;;;;;5135965;27;20465;-74
2021/11/04 06:11:06;;;;;;;20.50;12.63;;;;;;;;;;5135768;27;20461;-74
2021/11/04 06:13:33;;;;;;;17.20;12.10;;;;;;;;;;5134636;27;20504;-73
2021/11/04 06:16:01;;;;;;;21.97;12.50;;;;;;;;;;5133670;27;20449;-73
2021/11/04 06:18:28;;;;;;;26.83;13.00;;;;;;;;;;5134445;27;20900;-74
2021/11/04 06:20:56;;;;;;;19.83;12.17;;;;;;;;;;5134477;27;20474;-73
2021/11/04 06:23:23;;;;;;;25.90;11.87;;;;;;;;;;5133358;27;20449;-74
2021/11/04 06:25:55;;;;;;;19.93;13.00;;;;;;;;;;5134660;27;20514;-74
2021/11/04 06:28:23;;;;;;;20.43;12.53;;;;;;;;;;5134109;27;20457;-73
2021/11/04 06:30:50;;;;;;;22.43;12.00;;;;;;;;;;5130550;27;20445;-73
2021/11/04 06:33:17;;;;;;;27.07;13.00;;;;;;;;;;5133661;27;21086;-74
2021/11/04 06:35:52;;;;;;;18.33;11.27;;;;;;;;;;5116623;28;20447;-75
2021/11/04 06:38:22;;;;;;;22.93;11.73;;;;;;;;;;5113254;28;20523;-75
2021/11/04 06:40:50;;;;;;;16.63;10.40;;;;;;;;;;5112470;28;20482;-74
2021/11/04 06:43:18;;;;;;;17.23;11.23;;;;;;;;;;5111482;28;20450;-73
2021/11/04 06:45:47;;;;;;;17.33;11.00;;;;;;;;;;5122893;28;20438;-73
2021/11/04 06:48:20;;;;;;;16.70;11.40;;;;;;;;;;5130159;27;20476;-73
2021/11/04 06:50:48;;;;;;;17.13;10.17;;;;;;;;;;5113748;27;20453;-73
2021/11/04 06:53:15;;;;;;;17.53;10.70;;;;;;;;;;5115586;27;20455;-73
2021/11/04 06:55:43;;;;;;;13.97;9.63;;;;;;;;;;5132675;27;20506;-73
2021/11/04 06:58:14;;;;;;;20.50;10.53;;;;;;;;;;5132690;27;20466;-74
2021/11/04 07:00:44;;;;;;;15.30;10.47;;;;;;;;;;5133294;27;20481;-73
2021/11/04 07:03:21;;;;;;;19.10;10.90;;;;;;;;;;5134165;27;20445;-73
2021/11/04 07:05:48;;;;;;;19.37;12.47;;;;;;;;;;5129831;27;20456;-74
2021/11/04 07:08:21;;;;;;;15.90;10.60;;;;;;;;;;5116638;28;20454;-74
2021/11/04 07:10:48;;;;;;;16.07;11.30;;;;;;;;;;5118100;28;20450;-74
2021/11/04 07:13:16;;;;;;;12.27;7.93;;;;;;;;;;5125975;28;20846;-74
2021/11/04 07:15:43;;;;;;;19.53;11.00;;;;;;;;;;5130875;27;20431;-74
2021/11/04 07:18:11;;;;;;;17.70;11.13;;;;;;;;;;5126322;27;20466;-74
2021/11/04 07:20:42;;;;;;;15.60;10.67;;;;;;;;;;5131896;27;20475;-74
2021/11/04 07:23:15;;;;;;;10.60;8.43;;;;;;;;;;5118277;28;20523;-75
2021/11/04 07:25:45;;;;;;;14.73;9.53;;;;;;;;;;5117803;27;20454;-74
2021/11/04 07:28:14;;;;;;;14.60;8.73;;;;;;;;;;5124284;27;20541;-75
2021/11/04 07:30:42;;;;;;;15.37;9.33;;;;;;;;;;5138049;27;20472;-74
2021/11/04 07:33:09;;;;;;;16.83;11.27;;;;;;;;;;5138290;27;20464;-74
2021/11/04 07:35:37;;;;;;;9.87;6.23;;;;;;;;;;5138013;27;20532;-74
2021/11/04 07:38:15;;;;;;;13.73;8.97;;;;;;;;;;5135074;27;20446;-73
2021/11/04 07:40:42;;;;;;;13.10;7.87;;;;;;;;;;5129626;27;20541;-73
2021/11/04 07:43:10;;;;;;;10.03;7.43;;;;;;;;;;5125809;27;20446;-73
2021/11/04 07:45:40;;;;;;;13.23;8.27;;;;;;;;;;5120788;27;20466;-73
2021/11/04 07:48:13;;;;;;;11.60;7.30;;;;;;;;;;5117224;28;20862;-73
2021/11/04 07:50:47;;;;;;;12.03;8.30;;;;;;;;;;5120963;28;20478;-74
2021/11/04 07:53:17;;;;;;;8.23;5.80;;;;;;;;;;5118606;27;20445;-74
2021/11/04 07:55:45;;;;;;;11.97;8.17;;;;;;;;;;5121147;27;20485;-73
2021/11/04 07:58:12;;;;;;;12.17;6.40;;;;;;;;;;5130609;27;20481;-74
2021/11/04 08:00:43;;;;;;;10.87;6.23;;;;;;;;;;5128974;27;20532;-73
2021/11/04 08:03:11;;;;;;;13.90;8.27;;;;;;;;;;5137606;27;20511;-74
2021/11/04 08:05:38;;;;;;;9.90;7.30;;;;;;;;;;5117698;28;20886;-73
2021/11/04 08:08:05;;;;;;;12.40;7.10;;;;;;;;;;5111919;28;20551;-73
2021/11/04 08:10:36;;;;;;;10.87;6.87;;;;;;;;;;5100677;28;20463;-73
2021/11/04 08:13:06;;;;;;;11.43;7.53;;;;;;;;;;5096513;28;20470;-74
2021/11/04 08:15:36;;;;;;;12.07;8.57;;;;;;;;;;5110795;28;20630;-74
2021/11/04 08:18:05;;;;;;;13.17;8.30;;;;;;;;;;5116619;28;20447;-74
2021/11/04 08:20:36;;;;;;;14.07;8.90;;;;;;;;;;5115157;28;20473;-73
2021/11/04 08:23:09;;;;;;;10.43;7.00;;;;;;;;;;5116602;28;20447;-74
2021/11/04 08:25:39;;;;;;;11.50;7.20;;;;;;;;;;5106189;28;20443;-74
2021/11/04 08:28:07;;;;;;;11.67;5.87;;;;;;;;;;5110003;28;20525;-73
2021/11/04 08:30:39;;;;;;;10.40;6.90;;;;;;;;;;5112982;28;20456;-74
2021/11/04 08:33:34;;;;;;;9.33;7.10;;;;;;;;;;5102463;28;20539;-73
2021/11/04 08:36:01;;;;;;;9.50;7.07;;;;;;;;;;5105854;28;20616;-73
2021/11/04 08:38:51;;;;;;;12.53;7.57;;;;;;;;;;5106297;28;20727;-73
2021/11/04 08:41:19;;;;;;;11.30;7.73;;;;;;;;;;5114269;28;20902;-74
2021/11/04 08:43:46;;;;;;;19.27;13.07;;;;;;;;;;5117640;28;20464;-74
2021/11/04 08:46:14;;;;;;;12.53;7.93;;;;;;;;;;5117137;28;20438;-74
2021/11/04 08:48:44;;;;;;;15.60;8.97;;;;;;;;;;5115879;28;20466;-73
2021/11/04 08:51:18;;;;;;;12.10;8.57;;;;;;;;;;5098324;28;20590;-74
2021/11/04 08:53:46;;;;;;;15.83;8.60;;;;;;;;;;5096916;28;20466;-74
2021/11/04 08:56:26;;;;;;;11.67;7.33;;;;;;;;;;5096577;28;20498;-74
2021/11/04 08:58:56;;;;;;;17.77;12.07;;;;;;;;;;5096587;28;20834;-72
2021/11/04 09:01:34;;;;;;;16.97;10.67;;;;;;;;;;5100491;28;20865;-73
2021/11/04 09:04:08;;;;;;;17.57;10.10;;;;;;;;;;5098520;28;20455;-74
2021/11/04 09:06:41;;;;;;;14.57;10.17;;;;;;;;;;5115281;28;20465;-73
2021/11/04 09:09:09;;;;;;;12.70;7.20;;;;;;;;;;5121408;28;20442;-72
2021/11/04 09:11:37;;;;;;;14.30;8.97;;;;;;;;;;5108859;28;20790;-73
2021/11/04 09:14:15;;;;;;;16.10;10.23;;;;;;;;;;5096280;28;20558;-73
2021/11/04 09:16:43;;;;;;;15.87;9.90;;;;;;;;;;5095500;28;20795;-75
2021/11/04 09:19:12;;;;;;;17.70;9.80;;;;;;;;;;5095760;28;20490;-73
2021/11/04 09:21:41;;;;;;;17.03;10.87;;;;;;;;;;5094790;28;20479;-74
2021/11/04 09:24:08;;;;;;;18.57;10.73;;;;;;;;;;5110323;28;20443;-73
2021/11/04 09:26:43;;;;;;;17.23;10.77;;;;;;;;;;5101951;28;20534;-73
2021/11/04 09:29:19;;;;;;;18.53;11.10;;;;;;;;;;5097549;28;20479;-73
2021/11/04 09:31:52;;;;;;;19.23;10.53;;;;;;;;;;5115096;28;20507;-72
2021/11/04 09:34:20;;;;;;;17.43;10.87;;;;;;;;;;5120029;28;20612;-74
2021/11/04 09:36:47;;;;;;;14.93;11.07;;;;;;;;;;5110063;28;20461;-72
2021/11/04 09:39:16;;;;;;;17.37;10.20;;;;;;;;;;5095558;28;20528;-73
2021/11/04 09:41:44;;;;;;;19.17;12.80;;;;;;;;;;5103032;28;20477;-72
2021/11/04 09:44:12;;;;;;;15.10;10.13;;;;;;;;;;5106200;28;20517;-73
2021/11/04 09:46:43;;;;;;;23.33;12.73;;;;;;;;;;5109276;28;20467;-72
2021/11/04 09:49:11;;;;;;;15.60;10.80;;;;;;;;;;5112098;28;20870;-73
2021/11/04 09:51:39;;;;;;;17.33;11.33;;;;;;;;;;5095895;28;20444;-73
2021/11/04 09:54:09;;;;;;;17.60;10.90;;;;;;;;;;5111716;28;20889;-73
2021/11/04 09:56:37;;;;;;;15.60;10.30;;;;;;;;;;5114976;28;20789;-74
2021/11/04 09:59:08;;;;;;;19.70;10.90;;;;;;;;;;5107988;28;20462;-73
2021/11/04 10:01:36;;;;;;;15.73;11.10;;;;;;;;;;5099026;28;20577;-74
2021/11/04 10:04:05;;;;;;;17.97;14.20;;;;;;;;;;5094756;28;20463;-73
2021/11/04 10:06:33;;;;;;;14.57;9.77;;;;;;;;;;5093850;28;20573;-74
2021/11/04 10:09:04;;;;;;;17.00;9.40;;;;;;;;;;5096229;28;20458;-75
2021/11/04 10:11:33;;;;;;;21.73;14.43;;;;;;;;;;5109215;28;21069;-73
2021/11/04 10:14:02;;;;;;;15.20;9.37;;;;;;;;;;5112622;28;21120;-72
2021/11/04 10:16:31;;;;;;;15.73;8.53;;;;;;;;;;5099051;28;20922;-74
2021/11/04 10:19:07;;;;;;;24.33;13.87;;;;;;;;;;5095720;28;20546;-74
2021/11/04 10:21:36;;;;;;;15.97;10.53;;;;;;;;;;5094345;28;20591;-75
2021/11/04 10:24:03;;;;;;;24.63;15.17;;;;;;;;;;5094015;28;20550;-74
2021/11/04 10:26:33;;;;;;;20.13;12.07;;;;;;;;;;5094204;28;20464;-73
2021/11/04 10:29:04;;;;;;;24.60;13.10;;;;;;;;;;5105400;28;20458;-72
2021/11/04 10:31:43;;;;;;;27.27;15.80;;;;;;;;;;5114377;28;20611;-74
2021/11/04 10:34:13;;;;;;;19.43;11.90;;;;;;;;;;5109437;28;20458;-74
2021/11/04 10:36:47;;;;;;;22.53;13.13;;;;;;;;;;5112273;28;20463;-74
2021/11/04 10:39:21;;;;;;;24.53;15.07;;;;;;;;;;5100113;28;20602;-74
2021/11/04 10:41:58;;;;;;;20.03;12.73;;;;;;;;;;5103585;28;20519;-73
2021/11/04 10:44:33;;;;;;;22.67;14.70;;;;;;;;;;5096449;28;20447;-73
2021/11/04 10:47:15;;;;;;;20.27;12.13;;;;;;;;;;5114182;28;20453;-73
2021/11/04 10:49:45;;;;;;;24.07;15.30;;;;;;;;;;5114350;28;20748;-74
2021/11/04 10:52:26;;;;;;;24.60;15.70;;;;;;;;;;5098317;28;21062;-74
2021/11/04 10:54:58;;;;;;;29.20;14.70;;;;;;;;;;5117569;28;20507;-73
2021/11/04 10:57:38;;;;;;;28.17;17.30;;;;;;;;;;5116408;28;20439;-72
2021/11/04 11:00:20;;;;;;;28.47;17.33;;;;;;;;;;5105869;28;20477;-73
2021/11/04 11:03:07;;;;;;;22.17;13.10;;;;;;;;;;5089141;28;20956;-73
2021/11/04 11:05:42;;;;;;;26.10;14.03;;;;;;;;;;5095751;28;20606;-73
2021/11/04 11:08:10;;;;;;;30.30;14.90;;;;;;;;;;5097154;28;20455;-71
2021/11/04 11:10:41;;;;;;;21.37;13.90;;;;;;;;;;5096859;28;20451;-72
2021/11/04 11:13:08;;;;;;;22.10;14.80;;;;;;;;;;5098235;28;20447;-71
2021/11/04 11:15:37;;;;;;;19.43;11.27;;;;;;;;;;5096466;28;20540;-72
2021/11/04 11:18:05;;;;;;;20.67;12.60;;;;;;;;;;5096134;28;20443;-72
2021/11/04 11:20:39;;;;;;;22.73;11.90;;;;;;;;;;5096561;28;20451;-72
2021/11/04 11:23:12;;;;;;;31.53;14.37;;;;;;;;;;5096884;28;20454;-72
2021/11/04 11:25:42;;;;;;;17.47;10.93;;;;;;;;;;5111842;28;20453;-71
2021/11/04 11:28:09;;;;;;;18.67;13.17;;;;;;;;;;5104662;28;20557;-72
2021/11/04 11:30:36;;;;;;;18.33;13.60;;;;;;;;;;5097235;28;20459;-72
2021/11/04 11:33:17;;;;;;;26.30;12.90;;;;;;;;;;5103781;28;20487;-72
2021/11/04 11:36:05;;;;;;;23.90;14.80;;;;;;;;;;5116816;28;20515;-73
2021/11/04 11:38:34;;;;;;;27.50;15.20;;;;;;;;;;5112296;28;20928;-72
2021/11/04 11:41:04;;;;;;;19.30;10.53;;;;;;;;;;5103085;28;20486;-71
2021/11/04 11:44:02;;;;;;;23.40;12.27;;;;;;;;;;5099179;28;20464;-72
2021/11/04 11:46:33;;;;;;;21.10;12.57;;;;;;;;;;5118196;28;21052;-73
2021/11/04 11:49:23;;;;;;;22.90;13.50;;;;;;;;;;5116965;28;20472;-72
2021/11/04 11:51:57;;;;;;;18.60;10.37;;;;;;;;;;5117993;28;20549;-72
2021/11/04 11:58:08;;;;;;;14.17;8.70;;;;;;;;;;5099674;28;20459;-73
2021/11/04 12:03:54;;;;;;;23.93;14.07;;;;;;;;;;5049649;28;20894;-72
2021/11/04 12:06:36;;;;;;;19.70;12.33;;;;;;;;;;5106524;28;20465;-72
2021/11/04 12:09:05;;;;;;;22.17;14.10;;;;;;;;;;5103402;28;20470;-72
2021/11/04 12:11:48;;;;;;;23.13;12.07;;;;;;;;;;5115986;28;20471;-72
2021/11/04 12:14:35;;;;;;;17.17;12.80;;;;;;;;;;5100272;28;20443;-72
2021/11/04 12:17:26;;;;;;;15.53;11.17;;;;;;;;;;5098849;28;20535;-72
2021/11/04 12:20:01;;;;;;;24.97;16.17;;;;;;;;;;5095339;28;20733;-72
2021/11/04 12:22:30;;;;;;;20.30;11.80;;;;;;;;;;5103133;28;20494;-72
2021/11/04 12:24:59;;;;;;;21.90;14.50;;;;;;;;;;5095753;28;20448;-71
2021/11/04 12:27:31;;;;;;;21.63;11.80;;;;;;;;;;5096607;28;20444;-71
2021/11/04 12:30:11;;;;;;;17.70;11.73;;;;;;;;;;5107122;28;21036;-73
2021/11/04 12:32:57;;;;;;;20.57;11.90;;;;;;;;;;5094905;28;20462;-73
2021/11/04 12:35:24;;;;;;;24.27;13.90;;;;;;;;;;5094261;28;20479;-72
2021/11/04 12:37:52;;;;;;;19.30;12.40;;;;;;;;;;5110535;28;20477;-72
2021/11/04 12:40:19;;;;;;;16.03;11.47;;;;;;;;;;5114651;28;20455;-72
2021/11/04 12:42:54;;;;;;;15.50;10.40;;;;;;;;;;5110959;28;20776;-72
2021/11/04 12:45:27;;;;;;;20.40;12.93;;;;;;;;;;5100343;28;20464;-72
2021/11/04 12:48:01;;;;;;;18.80;12.50;;;;;;;;;;5114681;28;20774;-72
2021/11/04 12:50:29;;;;;;;15.30;7.30;;;;;;;;;;5115101;28;20541;-73
2021/11/04 12:53:01;;;;;;;17.27;10.67;;;;;;;;;;5115430;28;20846;-72
2021/11/04 12:55:28;;;;;;;15.03;10.10;;;;;;;;;;5112854;28;20459;-72
2021/11/04 12:58:00;;;;;;;17.37;9.57;;;;;;;;;;5116404;28;20447;-71
2021/11/04 13:00:34;;;;;;;17.43;10.70;;;;;;;;;;5114557;28;20799;-73
2021/11/04 13:03:05;;;;;;;21.40;12.03;;;;;;;;;;5113452;28;20767;-72
2021/11/04 13:05:37;;;;;;;24.30;15.37;;;;;;;;;;5105270;28;20459;-72
2021/11/04 13:08:08;;;;;;;17.47;11.40;;;;;;;;;;5115282;28;20447;-71
2021/11/04 13:10:38;;;;;;;13.07;8.50;;;;;;;;;;5101428;28;20455;-72
2021/11/04 13:13:08;;;;;;;17.93;10.97;;;;;;;;;;5106267;28;20768;-72
2021/11/04 13:15:35;;;;;;;21.47;12.77;;;;;;;;;;5115787;28;20561;-72
2021/11/04 13:18:05;;;;;;;16.53;10.23;;;;;;;;;;5115933;28;20760;-72
2021/11/04 13:20:33;;;;;;;13.87;8.57;;;;;;;;;;5094514;28;20836;-71
2021/11/04 13:23:03;;;;;;;16.70;9.90;;;;;;;;;;5095616;28;20491;-73
2021/11/04 13:25:32;;;;;;;18.27;13.57;;;;;;;;;;5094877;28;21119;-73
2021/11/04 13:28:02;;;;;;;17.43;11.83;;;;;;;;;;5098501;28;20555;-73
2021/11/04 13:30:40;;;;;;;16.87;10.70;;;;;;;;;;5110905;28;20863;-72
2021/11/04 13:33:09;;;;;;;18.70;10.27;;;;;;;;;;5103828;28;20452;-75
2021/11/04 13:35:36;;;;;;;15.30;9.00;;;;;;;;;;5103142;28;20945;-72
2021/11/04 13:38:12;;;;;;;13.03;9.10;;;;;;;;;;5104901;28;20464;-72
2021/11/04 13:40:45;;;;;;;19.23;12.10;;;;;;;;;;5095611;28;20560;-71
2021/11/04 13:43:19;;;;;;;18.40;10.60;;;;;;;;;;5095635;28;20766;-73
2021/11/04 13:45:47;;;;;;;20.20;13.10;;;;;;;;;;5096811;28;20654;-72
2021/11/04 13:48:15;;;;;;;16.63;10.53;;;;;;;;;;5102496;28;20470;-72
2021/11/04 13:50:43;;;;;;;15.97;10.97;;;;;;;;;;5112979;28;20474;-73
2021/11/04 13:53:20;;;;;;;12.00;8.00;;;;;;;;;;5113143;28;20489;-73
2021/11/04 13:55:49;;;;;;;17.00;11.37;;;;;;;;;;5108176;28;20518;-73
2021/11/04 13:58:17;;;;;;;17.80;10.07;;;;;;;;;;5099318;28;20483;-72
2021/11/04 14:00:44;;;;;;;18.10;11.63;;;;;;;;;;5098360;28;20472;-72
2021/11/04 14:03:16;;;;;;;27.60;11.50;;;;;;;;;;5097288;28;20440;-72
2021/11/04 14:05:57;;;;;;;15.67;9.87;;;;;;;;;;5095979;28;20800;-70
2021/11/04 14:08:39;;;;;;;17.67;11.70;;;;;;;;;;5096082;28;20514;-71
2021/11/04 14:14:10;;;;;;;15.97;9.23;;;;;;;;;;5088112;28;20839;-72
2021/11/04 14:16:38;;;;;;;18.27;10.70;;;;;;;;;;5094480;28;20455;-72
2021/11/04 14:19:07;;;;;;;14.67;9.67;;;;;;;;;;5094590;28;20882;-72
2021/11/04 14:21:35;;;;;;;18.77;10.00;;;;;;;;;;5094153;28;20532;-72
2021/11/04 14:24:03;;;;;;;18.93;11.00;;;;;;;;;;5098675;28;20463;-72
2021/11/04 14:26:34;;;;;;;11.57;8.27;;;;;;;;;;5098500;28;20479;-73
2021/11/04 14:29:04;;;;;;;12.77;7.33;;;;;;;;;;5097519;28;20564;-73
2021/11/04 14:31:31;;;;;;;13.57;9.00;;;;;;;;;;5102941;28;20934;-73
2021/11/04 14:33:59;;;;;;;16.13;11.53;;;;;;;;;;5117797;28;20893;-73
2021/11/04 14:36:30;;;;;;;20.37;11.33;;;;;;;;;;5102795;28;20459;-72
2021/11/04 14:38:59;;;;;;;12.47;9.43;;;;;;;;;;5094984;28;20450;-72
2021/11/04 14:41:26;;;;;;;28.63;19.13;;;;;;;;;;5096245;28;20519;-72
2021/11/04 14:43:55;;;;;;;14.40;9.37;;;;;;;;;;5096911;28;20445;-73